Ashton, ID

2:34 AM MST on January 31, 2015 (GMT -0700)
Ashton Community Pharmacy-23 S 8th St | Change Station
CLOSE
Current Station
Personal Weather Station
Location: Ashton, ID
Elevation: 5260 ft
Nearby Weather Stations

Elev 5260 ft 44.07 °N, 111.45 °W | Updated 3 minutes ago

Clear
Clear
18.6 °F
Feels Like 19 °F
N
1.0
Wind Variable Wind from ENE
Gusts 6.0 mph

Today
High -- | Low -- °F
--% Chance of Precip.
Yesterday
High -- | Low -- °F
Precip. -- in
7:44 AM 5:34 PM
Waxing Gibbous, 88% visible
Pressure 30.09 in
Visibility 8.0 miles
Clouds Clear
Windchill 19 °F
Dew Point 14 °F
Humidity 80%
Rainfall -999.00 in
Snow Depth Not available.
UV 0 out of 12
Pollen .30 out of 12
Air Quality Not available.
Flu Activity Not available.
METAR KDIJ 310856Z AUTO 03005KT 8SM CLR M12/M14 A3004 RMK AO2 58010 T11161144 SLP188

More Conditions Fewer Conditions

Pressure 30.09 in
Visibility 8.0 miles
Clouds Clear
Windchill 19 °F
Dew Point 14 °F
Humidity 80%
Rainfall -999.00 in
Snow Depth Not available.
UV 0 out of 12
Pollen .30 out of 12
Air Quality Not available.
Flu Activity Not available.
METAR KDIJ 310856Z AUTO 03005KT 8SM CLR M12/M14 A3004 RMK AO2 58010 T11161144 SLP188

More Conditions Fewer Conditions

10-Day Weather Forecast

Almanac

Astronomy

Jan. 31, 2015 Rise Set
Actual Time
Civil Twilight
Nautical Twilight
Astronomical Twilight
Moon
Length of Visible Light
Length of Day
Tomorrow will be .
, % of the Moon is Illuminated

Today's Extremes

State Highs State Lows

Community

WunderPhotos

Upload Photos

1,792,021 photos uploaded!

WunderBlogs® & News

Nearby

Air Quality

  Air Quality AQ Index Pollutant
Not available.

Snow Depth

Station Depth Elevation

Earthquake Activity

City Distance Mag. Time & Date
Minimum magnitude displayed is 2.5.

Coastal Water Temperatures

Place Temperature

Nearby Weather Stations